Time,TemperatureF,DewpointF,PressureIn,WindDirection,WindDirectionDegrees,WindSpeedMPH,WindSpeedGustMPH,Humidity,HourlyPrecipIn,Conditions,Clouds,dailyrainin,SoftwareType,DateUTC
2013-10-09 00:00:00,57.4,48.1,30.22,WNW,287,8.0,15.0,71,0.00,CLR,CLR,0.00,WeatherDisplay:10.37,2013-10-08 23:00:00,
2013-10-09 00:10:00,57.6,47.8,30.23,NW,306,9.0,17.0,70,0.00,CLR,CLR,0.00,WeatherDisplay:10.37,2013-10-08 23:10:00,
2013-10-09 00:20:00,57.6,47.5,30.22,WNW,293,7.0,16.0,69,0.00,CLR,CLR,0.00,WeatherDisplay:10.37,2013-10-08 23:20:00,
2013-10-09 00:30:00,57.9,47.8,30.23,NNW,332,5.0,15.0,69,0.00,CLR,CLR,0.00,WeatherDisplay:10.37,2013-10-08 23:30:00,
2013-10-09 00:40:00,57.6,47.2,30.22,NNW,339,6.0,15.0,68,0.00,CLR,CLR,0.00,WeatherDisplay:10.37,2013-10-08 23:40:00,
2013-10-09 00:50:00,57.6,47.1,30.23,NNW,332,7.0,13.0,68,0.00,CLR,CLR,0.00,WeatherDisplay:10.37,2013-10-08 23:50:00,
2013-10-09 01:00:00,57.2,46.7,30.23,WNW,298,7.0,15.0,68,0.00,CLR,CLR,0.00,WeatherDisplay:10.37,2013-10-09 00:00:00,
2013-10-09 01:10:00,56.7,46.6,30.23,NW,306,9.0,16.0,69,0.00,CLR,CLR,0.00,WeatherDisplay:10.37,2013-10-09 00:10:00,
2013-10-09 01:20:00,56.0,46.3,30.23,NW,305,12.0,15.0,70,0.00,CLR,CLR,0.00,WeatherDisplay:10.37,2013-10-09 00:20:00,
2013-10-09 01:30:00,56.0,46.7,30.22,WNW,295,10.0,15.0,71,0.00,CLR,CLR,0.00,WeatherDisplay:10.37,2013-10-09 00:30:00,
2013-10-09 01:40:00,55.4,45.4,30.22,WNW,291,6.0,15.0,69,0.00,CLR,CLR,0.00,WeatherDisplay:10.37,2013-10-09 00:40:00,
2013-10-09 01:50:00,55.8,45.4,30.23,WNW,290,8.0,13.0,68,0.00,CLR,CLR,0.00,WeatherDisplay:10.37,2013-10-09 00:50:00,
2013-10-09 02:00:00,55.9,45.9,30.22,WNW,283,10.0,13.0,69,0.00,CLR,CLR,0.00,WeatherDisplay:10.37,2013-10-09 01:00:00,
2013-10-09 02:10:00,55.7,45.7,30.22,WNW,293,7.0,14.0,69,0.00,CLR,CLR,0.00,WeatherDisplay:10.37,2013-10-09 01:10:00,
2013-10-09 02:20:00,55.2,45.5,30.22,WNW,285,6.0,12.0,70,0.00,CLR,CLR,0.00,WeatherDisplay:10.37,2013-10-09 01:20:00,
2013-10-09 02:30:00,55.3,46.0,30.22,WNW,299,9.0,13.0,71,0.00,CLR,CLR,0.00,WeatherDisplay:10.37,2013-10-09 01:30:00,
2013-10-09 02:40:00,55.8,46.1,30.21,WNW,297,8.0,15.0,70,0.00,CLR,CLR,0.00,WeatherDisplay:10.37,2013-10-09 01:40:00,
2013-10-09 02:50:00,55.2,46.0,30.22,WNW,290,7.0,12.0,71,0.00,CLR,CLR,0.00,WeatherDisplay:10.37,2013-10-09 01:50:00,
2013-10-09 03:00:00,55.9,46.3,30.22,NW,309,9.0,13.0,70,0.00,CLR,CLR,0.00,WeatherDisplay:10.37,2013-10-09 02:00:00,
2013-10-09 03:10:00,55.8,45.7,30.20,NW,310,7.0,13.0,69,0.00,CLR,CLR,0.00,WeatherDisplay:10.37,2013-10-09 02:10:00,
2013-10-09 03:20:00,55.5,45.4,30.21,NW,309,6.0,11.0,69,0.00,CLR,CLR,0.00,WeatherDisplay:10.37,2013-10-09 02:20:00,
2013-10-09 03:30:00,54.9,45.6,30.20,West,280,8.0,12.0,71,0.00,CLR,CLR,0.00,WeatherDisplay:10.37,2013-10-09 02:30:00,
2013-10-09 03:40:00,54.5,45.7,30.20,WNW,296,10.0,13.0,72,0.00,CLR,CLR,0.00,WeatherDisplay:10.37,2013-10-09 02:40:00,
2013-10-09 03:50:00,54.5,45.7,30.19,WNW,288,9.0,13.0,72,0.00,CLR,CLR,0.00,WeatherDisplay:10.37,2013-10-09 02:50:00,
2013-10-09 04:00:00,55.0,46.2,30.19,WNW,289,12.0,15.0,72,0.00,CLR,CLR,0.00,WeatherDisplay:10.37,2013-10-09 03:00:00,
2013-10-09 04:10:00,54.9,46.0,30.19,WNW,294,10.0,15.0,72,0.00,CLR,CLR,0.00,WeatherDisplay:10.37,2013-10-09 03:10:00,
2013-10-09 04:20:00,55.2,46.3,30.19,WNW,296,12.0,16.0,72,0.00,CLR,CLR,0.00,WeatherDisplay:10.37,2013-10-09 03:20:00,
2013-10-09 04:30:00,55.6,46.7,30.19,WNW,288,13.0,17.0,72,0.00,CLR,CLR,0.00,WeatherDisplay:10.37,2013-10-09 03:30:00,
2013-10-09 04:40:00,55.4,46.5,30.19,WNW,301,13.0,18.0,72,0.00,CLR,CLR,0.00,WeatherDisplay:10.37,2013-10-09 03:40:00,
2013-10-09 04:50:00,55.0,46.5,30.20,WNW,299,12.0,17.0,73,0.00,CLR,CLR,0.00,WeatherDisplay:10.37,2013-10-09 03:50:00,
2013-10-09 05:00:00,55.5,46.6,30.19,WNW,302,10.0,20.0,72,0.00,CLR,CLR,0.00,WeatherDisplay:10.37,2013-10-09 04:00:00,
2013-10-09 05:10:00,55.6,46.7,30.19,WNW,295,10.0,18.0,72,0.00,CLR,CLR,0.00,WeatherDisplay:10.37,2013-10-09 04:10:00,
2013-10-09 05:20:00,55.5,47.0,30.19,WNW,294,10.0,17.0,73,0.00,CLR,CLR,0.00,WeatherDisplay:10.37,2013-10-09 04:20:00,
2013-10-09 05:30:00,54.9,46.7,30.19,West,268,10.0,16.0,74,0.00,CLR,CLR,0.00,WeatherDisplay:10.37,2013-10-09 04:30:00,
2013-10-09 05:40:00,55.2,47.0,30.18,West,273,10.0,20.0,74,0.00,CLR,CLR,0.00,WeatherDisplay:10.37,2013-10-09 04:40:00,
2013-10-09 05:50:00,55.4,47.6,30.17,WNW,293,9.0,17.0,75,0.00,CLR,CLR,0.00,WeatherDisplay:10.37,2013-10-09 04:50:00,
2013-10-09 06:00:00,55.4,47.6,30.17,WNW,291,10.0,17.0,75,0.00,CLR,CLR,0.00,WeatherDisplay:10.37,2013-10-09 05:00:00,
2013-10-09 06:10:00,58.5,48.7,30.17,WNW,287,10.0,18.0,70,0.00,CLR,CLR,0.00,WeatherDisplay:10.37,2013-10-09 05:10:00,
2013-10-09 06:20:00,59.2,48.2,30.17,WNW,297,15.0,20.0,67,0.00,CLR,CLR,0.00,WeatherDisplay:10.37,2013-10-09 05:20:00,
2013-10-09 06:30:00,59.0,48.0,30.17,WNW,302,16.0,21.0,67,0.00,CLR,CLR,0.00,WeatherDisplay:10.37,2013-10-09 05:30:00,
2013-10-09 06:40:00,58.6,48.5,30.17,WNW,290,15.0,22.0,69,0.00,CLR,CLR,0.00,WeatherDisplay:10.37,2013-10-09 05:40:00,
2013-10-09 06:50:00,58.6,48.9,30.17,West,271,15.0,24.0,70,0.00,CLR,CLR,0.00,WeatherDisplay:10.37,2013-10-09 05:50:00,
2013-10-09 07:00:00,58.6,49.3,30.17,West,275,14.0,21.0,71,0.00,CLR,CLR,0.00,WeatherDisplay:10.37,2013-10-09 06:00:00,
2013-10-09 07:10:00,59.2,49.4,30.17,WNW,291,9.0,22.0,70,0.00,CLR,CLR,0.00,WeatherDisplay:10.37,2013-10-09 06:10:00,
2013-10-09 07:20:00,59.2,49.4,30.17,WNW,291,13.0,17.0,70,0.00,CLR,CLR,0.00,WeatherDisplay:10.37,2013-10-09 06:20:00,
2013-10-09 07:30:00,58.9,49.1,30.17,WNW,291,12.0,17.0,70,0.00,CLR,CLR,0.00,WeatherDisplay:10.37,2013-10-09 06:30:00,
2013-10-09 07:40:00,58.7,48.9,30.17,WNW,293,15.0,18.0,70,0.00,CLR,CLR,0.00,WeatherDisplay:10.37,2013-10-09 06:40:00,
2013-10-09 07:50:00,59.0,49.2,30.17,West,277,13.0,17.0,70,0.00,CLR,CLR,0.00,WeatherDisplay:10.37,2013-10-09 06:50:00,
2013-10-09 08:00:00,59.2,49.0,30.17,WNW,294,9.0,17.0,69,0.00,CLR,CLR,0.00,WeatherDisplay:10.37,2013-10-09 07:00:00,
2013-10-09 08:10:00,59.2,49.0,30.16,WNW,283,12.0,17.0,69,0.00,CLR,CLR,0.00,WeatherDisplay:10.37,2013-10-09 07:10:00,
2013-10-09 08:20:00,58.6,49.3,30.16,NW,305,15.0,20.0,71,0.00,CLR,CLR,0.00,WeatherDisplay:10.37,2013-10-09 07:20:00,
2013-10-09 08:30:00,58.6,49.2,30.16,WNW,302,16.0,21.0,71,0.00,CLR,CLR,0.00,WeatherDisplay:10.37,2013-10-09 07:30:00,
2013-10-09 08:40:00,58.9,49.9,30.17,West,273,13.0,22.0,72,0.00,CLR,CLR,0.00,WeatherDisplay:10.37,2013-10-09 07:40:00,
2013-10-09 08:50:00,59.4,48.8,30.17,NW,307,9.0,22.0,68,0.00,CLR,CLR,0.00,WeatherDisplay:10.37,2013-10-09 07:50:00,
2013-10-09 09:00:00,59.9,48.5,30.17,NW,320,8.0,17.0,66,0.00,CLR,CLR,0.00,WeatherDisplay:10.37,2013-10-09 08:00:00,
2013-10-09 09:10:00,59.8,48.4,30.17,WNW,285,5.0,16.0,66,0.00,CLR,CLR,0.00,WeatherDisplay:10.37,2013-10-09 08:10:00,
2013-10-09 09:20:00,60.0,49.4,30.17,NW,311,10.0,15.0,68,0.00,CLR,CLR,0.00,WeatherDisplay:10.37,2013-10-09 08:20:00,
2013-10-09 09:30:00,60.6,49.2,30.17,WNW,288,8.0,15.0,66,0.00,CLR,CLR,0.00,WeatherDisplay:10.37,2013-10-09 08:30:00,
2013-10-09 09:40:00,61.9,49.6,30.16,WNW,284,10.0,16.0,64,0.00,CLR,CLR,0.00,WeatherDisplay:10.37,2013-10-09 08:40:00,
2013-10-09 09:50:00,61.2,48.5,30.17,NW,309,12.0,17.0,63,0.00,CLR,CLR,0.00,WeatherDisplay:10.37,2013-10-09 08:50:00,
2013-10-09 10:00:00,61.2,48.5,30.17,West,277,8.0,15.0,63,0.00,CLR,CLR,0.00,WeatherDisplay:10.37,2013-10-09 09:00:00,
2013-10-09 10:10:00,61.3,48.6,30.17,WNW,290,9.0,17.0,63,0.00,CLR,CLR,0.00,WeatherDisplay:10.37,2013-10-09 09:10:00,
2013-10-09 10:20:00,61.2,48.5,30.17,West,275,10.0,17.0,63,0.00,CLR,CLR,0.00,WeatherDisplay:10.37,2013-10-09 09:20:00,
2013-10-09 10:30:00,61.2,48.5,30.17,WNW,294,12.0,16.0,63,0.00,CLR,CLR,0.00,WeatherDisplay:10.37,2013-10-09 09:30:00,
2013-10-09 10:40:00,61.0,48.3,30.17,NW,315,14.0,20.0,63,0.00,CLR,CLR,0.00,WeatherDisplay:10.37,2013-10-09 09:40:00,
2013-10-09 10:50:00,61.2,48.5,30.17,WNW,298,10.0,21.0,63,0.00,CLR,CLR,0.00,WeatherDisplay:10.37,2013-10-09 09:50:00,
2013-10-09 11:00:00,60.8,48.5,30.17,NNW,335,8.0,20.0,64,0.00,CLR,CLR,0.00,WeatherDisplay:10.37,2013-10-09 10:00:00,
2013-10-09 11:10:00,57.2,49.3,30.17,North,355,3.0,20.0,75,0.00,CLR,CLR,0.00,WeatherDisplay:10.37,2013-10-09 10:10:00,
2013-10-09 11:20:00,58.6,50.7,30.17,North,355,5.0,13.0,75,0.00,CLR,CLR,0.00,WeatherDisplay:10.37,2013-10-09 10:20:00,
2013-10-09 11:30:00,60.7,50.5,30.17,North,351,7.0,21.0,69,0.00,CLR,CLR,0.00,WeatherDisplay:10.37,2013-10-09 10:30:00,
2013-10-09 11:40:00,59.6,49.5,30.17,WNW,292,8.0,27.0,69,0.00,CLR,CLR,0.00,WeatherDisplay:10.37,2013-10-09 10:40:00,
2013-10-09 11:50:00,59.7,48.3,30.16,NNE,15,9.0,20.0,66,0.00,CLR,CLR,0.00,WeatherDisplay:10.37,2013-10-09 10:50:00,
2013-10-09 12:00:00,60.4,47.8,30.17,NW,324,14.0,27.0,63,0.00,CLR,CLR,0.00,WeatherDisplay:10.37,2013-10-09 11:00:00,
2013-10-09 12:10:00,61.3,48.2,30.17,North,10,13.0,26.0,62,0.00,CLR,CLR,0.00,WeatherDisplay:10.37,2013-10-09 11:10:00,
2013-10-09 12:20:00,62.8,45.9,30.17,North,357,17.0,26.0,54,0.00,CLR,CLR,0.00,WeatherDisplay:10.37,2013-10-09 11:20:00,
2013-10-09 12:30:00,61.3,44.5,30.17,North,355,16.0,29.0,54,0.00,CLR,CLR,0.00,WeatherDisplay:10.37,2013-10-09 11:30:00,
2013-10-09 12:40:00,61.2,43.9,30.16,NNW,327,14.0,27.0,53,0.00,CLR,CLR,0.00,WeatherDisplay:10.37,2013-10-09 11:40:00,
2013-10-09 12:50:00,60.4,43.7,30.17,North,350,8.0,23.0,54,0.00,CLR,CLR,0.00,WeatherDisplay:10.37,2013-10-09 11:50:00,
2013-10-09 13:00:00,59.5,42.3,30.16,NNW,329,13.0,25.0,53,0.00,CLR,CLR,0.00,WeatherDisplay:10.37,2013-10-09 12:00:00,
2013-10-09 13:10:00,60.2,44.0,30.16,North,355,17.0,29.0,55,0.00,CLR,CLR,0.00,WeatherDisplay:10.37,2013-10-09 12:10:00,
2013-10-09 13:20:00,62.7,43.2,30.17,North,354,17.0,29.0,49,0.00,CLR,CLR,0.00,WeatherDisplay:10.37,2013-10-09 12:20:00,
2013-10-09 13:30:00,63.0,41.8,30.17,North,357,16.0,30.0,46,0.00,CLR,CLR,0.00,WeatherDisplay:10.37,2013-10-09 12:30:00,
2013-10-09 13:40:00,59.6,42.5,30.17,North,9,15.0,30.0,53,0.00,CLR,CLR,0.00,WeatherDisplay:10.37,2013-10-09 12:40:00,
2013-10-09 13:50:00,60.1,42.9,30.17,NW,312,13.0,26.0,53,0.00,CLR,CLR,0.00,WeatherDisplay:10.37,2013-10-09 12:50:00,
2013-10-09 14:00:00,60.1,43.4,30.17,NNW,348,14.0,27.0,54,0.00,CLR,CLR,0.00,WeatherDisplay:10.37,2013-10-09 13:00:00,
2013-10-09 14:10:00,61.0,44.7,30.17,NNE,28,23.0,29.0,55,0.00,CLR,CLR,0.00,WeatherDisplay:10.37,2013-10-09 13:10:00,
2013-10-09 14:20:00,59.6,42.4,30.18,North,352,9.0,34.0,53,0.00,CLR,CLR,0.00,WeatherDisplay:10.37,2013-10-09 13:20:00,
2013-10-09 14:30:00,59.2,42.5,30.17,NNW,338,8.0,21.0,54,0.00,CLR,CLR,0.00,WeatherDisplay:10.37,2013-10-09 13:30:00,
2013-10-09 14:40:00,60.3,43.6,30.17,North,10,9.0,23.0,54,0.00,CLR,CLR,0.00,WeatherDisplay:10.37,2013-10-09 13:40:00,
2013-10-09 14:50:00,60.3,42.6,30.17,North,351,16.0,30.0,52,0.00,CLR,CLR,0.00,WeatherDisplay:10.37,2013-10-09 13:50:00,
2013-10-09 15:00:00,60.3,43.1,30.16,NW,310,15.0,29.0,53,0.00,CLR,CLR,0.00,WeatherDisplay:10.37,2013-10-09 14:00:00,
2013-10-09 15:10:00,60.5,43.3,30.16,NNW,327,12.0,25.0,53,0.00,CLR,CLR,0.00,WeatherDisplay:10.37,2013-10-09 14:10:00,
2013-10-09 15:20:00,59.8,42.6,30.16,NNW,330,12.0,22.0,53,0.00,CLR,CLR,0.00,WeatherDisplay:10.37,2013-10-09 14:20:00,
2013-10-09 15:30:00,58.9,42.3,30.16,NNW,333,8.0,23.0,54,0.00,CLR,CLR,0.00,WeatherDisplay:10.37,2013-10-09 14:30:00,
2013-10-09 15:40:00,59.2,42.0,30.16,North,349,10.0,28.0,53,0.00,CLR,CLR,0.00,WeatherDisplay:10.37,2013-10-09 14:40:00,
2013-10-09 15:50:00,59.6,40.4,30.17,NNW,333,10.0,28.0,49,0.00,CLR,CLR,0.00,WeatherDisplay:10.37,2013-10-09 14:50:00,
2013-10-09 16:00:00,60.0,40.2,30.16,NW,313,15.0,23.0,48,0.00,CLR,CLR,0.00,WeatherDisplay:10.37,2013-10-09 15:00:00,
2013-10-09 16:10:00,59.4,40.2,30.17,NW,310,9.0,23.0,49,0.00,CLR,CLR,0.00,WeatherDisplay:10.37,2013-10-09 15:10:00,
2013-10-09 16:20:00,59.7,39.4,30.17,North,356,7.0,21.0,47,0.00,CLR,CLR,0.00,WeatherDisplay:10.37,2013-10-09 15:20:00,
2013-10-09 16:30:00,59.4,39.7,30.17,NNW,330,7.0,15.0,48,0.00,CLR,CLR,0.00,WeatherDisplay:10.37,2013-10-09 15:30:00,
2013-10-09 16:40:00,57.9,39.9,30.17,NNE,15,10.0,25.0,51,0.00,CLR,CLR,0.00,WeatherDisplay:10.37,2013-10-09 15:40:00,
2013-10-09 16:50:00,55.6,41.0,30.17,North,352,9.0,22.0,58,0.00,CLR,CLR,0.00,WeatherDisplay:10.37,2013-10-09 15:50:00,
2013-10-09 17:00:00,56.3,41.7,30.18,North,357,8.0,20.0,58,0.00,CLR,CLR,0.00,WeatherDisplay:10.37,2013-10-09 16:00:00,
2013-10-09 17:10:00,55.9,41.4,30.18,NW,319,7.0,20.0,58,0.00,CLR,CLR,0.00,WeatherDisplay:10.37,2013-10-09 16:10:00,
2013-10-09 17:20:00,56.1,41.5,30.18,North,7,8.0,17.0,58,0.00,CLR,CLR,0.00,WeatherDisplay:10.37,2013-10-09 16:20:00,
2013-10-09 17:30:00,56.5,41.4,30.18,North,355,7.0,17.0,57,0.00,CLR,CLR,0.00,WeatherDisplay:10.37,2013-10-09 16:30:00,
2013-10-09 17:40:00,56.0,41.0,30.18,NNW,329,9.0,17.0,57,0.00,CLR,CLR,0.00,WeatherDisplay:10.37,2013-10-09 16:40:00,
2013-10-09 17:50:00,55.6,41.0,30.18,North,350,8.0,17.0,58,0.00,CLR,CLR,0.00,WeatherDisplay:10.37,2013-10-09 16:50:00,
2013-10-09 18:00:00,54.2,40.6,30.18,NNW,342,10.0,26.0,60,0.00,CLR,CLR,0.00,WeatherDisplay:10.37,2013-10-09 17:00:00,
2013-10-09 18:10:00,53.7,40.1,30.19,NNE,16,7.0,17.0,60,0.00,CLR,CLR,0.00,WeatherDisplay:10.37,2013-10-09 17:10:00,
2013-10-09 18:20:00,53.4,40.7,30.19,NNE,13,5.0,13.0,62,0.00,CLR,CLR,0.00,WeatherDisplay:10.37,2013-10-09 17:20:00,
2013-10-09 18:30:00,53.1,40.4,30.20,NW,323,5.0,25.0,62,0.00,CLR,CLR,0.00,WeatherDisplay:10.37,2013-10-09 17:30:00,
2013-10-09 18:40:00,52.9,40.2,30.20,North,358,6.0,15.0,62,0.00,CLR,CLR,0.00,WeatherDisplay:10.37,2013-10-09 17:40:00,
2013-10-09 18:50:00,52.9,40.2,30.20,North,355,5.0,18.0,62,0.00,CLR,CLR,0.00,WeatherDisplay:10.37,2013-10-09 17:50:00,
2013-10-09 19:00:00,52.5,39.9,30.20,NW,310,3.0,12.0,62,0.00,CLR,CLR,0.00,WeatherDisplay:10.37,2013-10-09 18:00:00,
2013-10-09 19:10:00,52.5,39.9,30.20,ENE,58,6.0,11.0,62,0.00,CLR,CLR,0.00,WeatherDisplay:10.37,2013-10-09 18:10:00,
2013-10-09 19:20:00,52.3,39.7,30.21,NNE,14,3.0,12.0,62,0.00,CLR,CLR,0.00,WeatherDisplay:10.37,2013-10-09 18:20:00,
2013-10-09 19:30:00,52.3,39.7,30.21,NE,45,5.0,13.0,62,0.00,CLR,CLR,0.00,WeatherDisplay:10.37,2013-10-09 18:30:00,
2013-10-09 19:40:00,52.5,39.4,30.21,North,351,5.0,16.0,61,0.00,CLR,CLR,0.00,WeatherDisplay:10.37,2013-10-09 18:40:00,
2013-10-09 19:50:00,52.5,39.5,30.22,North,8,6.0,12.0,61,0.00,CLR,CLR,0.00,WeatherDisplay:10.37,2013-10-09 18:50:00,
2013-10-09 20:00:00,52.2,39.1,30.22,North,352,6.0,11.0,61,0.00,CLR,CLR,0.00,WeatherDisplay:10.37,2013-10-09 19:00:00,
2013-10-09 20:10:00,51.8,38.3,30.22,NNE,13,7.0,14.0,60,0.00,CLR,CLR,0.00,WeatherDisplay:10.37,2013-10-09 19:10:00,
2013-10-09 20:20:00,52.3,38.0,30.22,North,2,7.0,13.0,58,0.00,CLR,CLR,0.00,WeatherDisplay:10.37,2013-10-09 19:20:00,
2013-10-09 20:30:00,51.5,38.1,30.22,NE,43,5.0,12.0,60,0.00,CLR,CLR,0.00,WeatherDisplay:10.37,2013-10-09 19:30:00,
2013-10-09 20:40:00,51.8,38.8,30.23,NNW,344,5.0,13.0,61,0.00,CLR,CLR,0.00,WeatherDisplay:10.37,2013-10-09 19:40:00,
2013-10-09 20:50:00,51.8,38.8,30.23,NNE,16,6.0,16.0,61,0.00,CLR,CLR,0.00,WeatherDisplay:10.37,2013-10-09 19:50:00,
2013-10-09 21:00:00,52.0,38.5,30.23,NNW,343,6.0,17.0,60,0.00,CLR,CLR,0.00,WeatherDisplay:10.37,2013-10-09 20:00:00,
2013-10-09 21:10:00,51.6,39.4,30.23,NNE,22,9.0,17.0,63,0.00,CLR,CLR,0.00,WeatherDisplay:10.37,2013-10-09 20:10:00,
2013-10-09 21:20:00,51.3,39.1,30.23,North,4,8.0,16.0,63,0.00,CLR,CLR,0.00,WeatherDisplay:10.37,2013-10-09 20:20:00,
2013-10-09 21:30:00,50.9,39.1,30.24,North,11,3.0,15.0,64,0.00,CLR,CLR,0.00,WeatherDisplay:10.37,2013-10-09 20:30:00,
2013-10-09 21:40:00,50.7,39.4,30.24,NE,34,6.0,15.0,65,0.00,CLR,CLR,0.00,WeatherDisplay:10.37,2013-10-09 20:40:00,
2013-10-09 21:50:00,51.3,39.5,30.23,North,358,5.0,15.0,64,0.00,CLR,CLR,0.00,WeatherDisplay:10.37,2013-10-09 20:50:00,
2013-10-09 22:00:00,50.9,39.1,30.24,North,360,5.0,12.0,64,0.00,CLR,CLR,0.00,WeatherDisplay:10.37,2013-10-09 21:00:00,
2013-10-09 22:10:00,50.7,39.4,30.24,NE,48,5.0,10.0,65,0.00,CLR,CLR,0.00,WeatherDisplay:10.37,2013-10-09 21:10:00,
2013-10-09 22:20:00,50.6,39.3,30.24,ENE,60,6.0,13.0,65,0.00,CLR,CLR,0.00,WeatherDisplay:10.37,2013-10-09 21:20:00,
2013-10-09 22:30:00,50.3,38.9,30.25,North,350,3.0,13.0,65,0.00,CLR,CLR,0.00,WeatherDisplay:10.37,2013-10-09 21:30:00,
2013-10-09 22:40:00,50.9,39.9,30.24,North,353,6.0,13.0,66,0.00,CLR,CLR,0.00,WeatherDisplay:10.37,2013-10-09 21:40:00,
2013-10-09 22:50:00,50.7,39.8,30.24,North,2,6.0,13.0,66,0.00,CLR,CLR,0.00,WeatherDisplay:10.37,2013-10-09 21:50:00,
2013-10-09 23:00:00,50.2,39.3,30.24,NNW,338,3.0,13.0,66,0.00,CLR,CLR,0.00,WeatherDisplay:10.37,2013-10-09 22:00:00,
2013-10-09 23:10:00,50.2,40.0,30.24,North,0,3.0,12.0,68,0.00,CLR,CLR,0.00,WeatherDisplay:10.37,2013-10-09 22:10:00,
2013-10-09 23:20:00,50.0,39.8,30.24,NNE,20,3.0,10.0,68,0.00,CLR,CLR,0.00,WeatherDisplay:10.37,2013-10-09 22:20:00,
2013-10-09 23:30:00,50.4,40.6,30.25,NE,41,5.0,11.0,69,0.00,CLR,CLR,0.00,WeatherDisplay:10.37,2013-10-09 22:30:00,
2013-10-09 23:40:00,50.7,40.9,30.24,North,352,5.0,15.0,69,0.00,CLR,CLR,0.00,WeatherDisplay:10.37,2013-10-09 22:40:00,
2013-10-09 23:50:00,50.5,40.7,30.25,NE,46,5.0,10.0,69,0.00,CLR,CLR,0.00,WeatherDisplay:10.37,2013-10-09 22:50:00,